createdAt,value
2022-08-23T00:03:05.498Z,72.53
2022-08-23T00:07:11.815Z,72.86
2022-08-23T00:11:32.127Z,72.93
2022-08-23T00:15:33.803Z,73.01
2022-08-23T00:19:36.846Z,72.87
2022-08-23T00:23:38.448Z,73.15
2022-08-23T00:27:40.142Z,73.12
2022-08-23T00:31:41.920Z,73.10
2022-08-23T00:35:44.602Z,72.46
2022-08-23T00:39:46.309Z,72.22
2022-08-23T00:44:07.361Z,71.94
2022-08-23T00:48:09.035Z,71.86
2022-08-23T00:52:31.006Z,72.14
2022-08-23T00:56:36.404Z,72.08
2022-08-23T01:00:38.080Z,71.89
2022-08-23T01:04:44.550Z,71.69
2022-08-23T01:08:52.299Z,71.90
2022-08-23T01:13:03.899Z,72.25
2022-08-23T01:17:12.585Z,72.31
2022-08-23T01:21:21.856Z,72.61
2022-08-23T01:25:25.894Z,73.06
2022-08-23T01:29:28.019Z,73.12
2022-08-23T01:33:29.837Z,72.91
2022-08-23T01:37:31.709Z,72.80
2022-08-23T01:41:33.782Z,73.03
2022-08-23T01:45:37.226Z,72.93
2022-08-23T01:49:41.990Z,72.44
2022-08-23T01:53:44.058Z,72.45
2022-08-23T01:57:49.477Z,72.64
2022-08-23T02:01:53.533Z,72.60
2022-08-23T02:05:57.854Z,71.94
2022-08-23T02:09:59.713Z,72.20
2022-08-23T02:14:05.633Z,72.04
2022-08-23T02:18:16.312Z,72.03
2022-08-23T02:22:18.721Z,71.61
2022-08-23T02:26:20.399Z,71.70
2022-08-23T02:30:33.027Z,71.93
2022-08-23T02:34:36.444Z,71.65
2022-08-23T02:38:38.065Z,71.53
2022-08-23T02:42:40.570Z,71.41
2022-08-23T02:46:42.923Z,71.50
2022-08-23T02:50:44.658Z,71.56
2022-08-23T02:54:46.873Z,71.21
2022-08-23T02:58:54.520Z,71.07
2022-08-23T03:02:57.529Z,71.43
2022-08-23T03:06:59.956Z,71.49
2022-08-23T03:11:02.830Z,71.22
2022-08-23T03:15:11.926Z,71.56
2022-08-23T03:19:13.687Z,71.41
2022-08-23T03:23:15.324Z,71.63
2022-08-23T03:27:17.184Z,71.59
2022-08-23T03:31:19.718Z,71.46
2022-08-23T03:35:42.393Z,71.39
2022-08-23T03:39:46.609Z,71.73
2022-08-23T03:43:49.154Z,71.89
2022-08-23T03:47:51.823Z,71.63
2022-08-23T03:51:53.639Z,71.96
2022-08-23T03:55:56.456Z,71.88
2022-08-23T03:59:59.905Z,72.51
2022-08-23T04:04:04.039Z,72.30
2022-08-23T04:08:10.578Z,72.98
2022-08-23T04:12:17.845Z,72.60
2022-08-23T04:16:20.153Z,72.85
2022-08-23T04:20:21.953Z,72.47
2022-08-23T04:24:30.832Z,72.59
2022-08-23T04:28:36.618Z,72.80
2022-08-23T04:32:38.217Z,73.21
2022-08-23T04:36:44.862Z,73.62
2022-08-23T04:41:16.121Z,73.70
2022-08-23T04:45:20.638Z,74.09
2022-08-23T04:49:25.626Z,74.21
2022-08-23T04:53:30.327Z,74.11
2022-08-23T04:57:54.692Z,74.57
2022-08-23T05:02:00.290Z,74.77
2022-08-23T05:06:05.153Z,74.98
2022-08-23T05:10:15.208Z,74.86
2022-08-23T05:14:21.559Z,75.53
2022-08-23T05:18:24.718Z,75.71
2022-08-23T05:22:26.494Z,75.46
2022-08-23T05:27:03.469Z,75.83
2022-08-23T05:31:05.438Z,75.56
2022-08-23T05:35:17.984Z,75.94
2022-08-23T05:39:25.767Z,75.58
2022-08-23T05:43:38.832Z,75.55
2022-08-23T05:47:40.709Z,75.64
2022-08-23T05:51:56.887Z,75.35
2022-08-23T05:56:20.187Z,76.03
2022-08-23T06:00:21.962Z,76.17
2022-08-23T06:04:38.982Z,75.94
2022-08-23T06:08:41.187Z,76.24
2022-08-23T06:12:42.899Z,76.40
2022-08-23T06:16:47.682Z,75.82
2022-08-23T06:21:05.711Z,75.95
2022-08-23T06:25:16.297Z,75.08
2022-08-23T06:29:46.036Z,74.46
2022-08-23T06:34:18.581Z,74.15
2022-08-23T06:38:38.127Z,73.32
2022-08-23T06:42:58.516Z,72.67
2022-08-23T06:47:09.086Z,71.38
2022-08-23T06:51:29.120Z,70.80
2022-08-23T06:55:49.731Z,70.35
2022-08-23T07:00:12.440Z,69.31
2022-08-23T07:04:35.727Z,69.18
2022-08-23T07:09:05.192Z,68.65
2022-08-23T07:13:07.119Z,68.16
2022-08-23T07:17:09.631Z,67.98
2022-08-23T07:21:12.814Z,68.29
2022-08-23T07:25:17.187Z,67.96
2022-08-23T07:29:22.874Z,68.14
2022-08-23T07:33:24.520Z,68.38
2022-08-23T07:37:40.876Z,68.48
2022-08-23T07:41:43.639Z,68.21
2022-08-23T07:45:48.046Z,68.80
2022-08-23T07:49:50.871Z,68.71
2022-08-23T07:53:53.250Z,68.62
2022-08-23T07:57:56.223Z,68.60
2022-08-23T08:02:14.191Z,68.15
2022-08-23T08:06:19.567Z,67.91
2022-08-23T08:10:21.377Z,68.02
2022-08-23T08:14:23.905Z,67.82
2022-08-23T08:18:29.938Z,67.04
2022-08-23T08:22:58.526Z,66.64
2022-08-23T08:27:22.064Z,65.94
2022-08-23T08:31:25.150Z,65.52
2022-08-23T08:35:26.887Z,65.10
2022-08-23T08:39:31.662Z,65.44
2022-08-23T08:43:57.579Z,65.44
2022-08-23T08:48:13.663Z,65.27
2022-08-23T08:52:27.788Z,65.68
2022-08-23T08:56:40.427Z,65.65
2022-08-23T09:00:55.177Z,65.51
2022-08-23T09:05:01.132Z,65.15
2022-08-23T09:09:23.923Z,64.86
2022-08-23T09:14:09.320Z,64.64
2022-08-23T09:18:14.609Z,64.41
2022-08-23T09:22:30.670Z,64.02
2022-08-23T09:26:32.669Z,63.70
2022-08-23T09:30:55.003Z,62.92
2022-08-23T09:35:06.914Z,62.45
2022-08-23T09:39:30.678Z,61.97
2022-08-23T09:43:44.665Z,61.83
2022-08-23T09:47:46.972Z,61.98
2022-08-23T09:51:54.236Z,61.35
2022-08-23T09:55:58.765Z,60.95
2022-08-23T10:00:15.015Z,60.80
2022-08-23T10:04:37.692Z,60.65
2022-08-23T10:08:58.286Z,60.36
2022-08-23T10:13:04.093Z,60.31
2022-08-23T10:17:30.470Z,60.50
2022-08-23T10:21:54.354Z,60.11
2022-08-23T10:26:01.653Z,60.18
2022-08-23T10:30:23.665Z,59.74
2022-08-23T10:34:53.186Z,59.74
2022-08-23T10:39:03.609Z,59.53
2022-08-23T10:43:14.884Z,59.72
2022-08-23T10:47:21.338Z,59.72
2022-08-23T10:51:42.869Z,59.45
2022-08-23T10:56:04.271Z,59.31
2022-08-23T11:00:21.545Z,58.96
2022-08-23T11:04:38.291Z,58.85
2022-08-23T11:08:59.197Z,58.87
2022-08-23T11:13:06.742Z,58.69
2022-08-23T11:17:29.876Z,57.51
2022-08-23T11:21:38.553Z,57.55
2022-08-23T11:25:45.947Z,56.96
2022-08-23T11:29:48.225Z,56.19
2022-08-23T11:34:28.964Z,55.07
2022-08-23T11:38:48.801Z,54.37
2022-08-23T11:42:53.194Z,54.80
2022-08-23T11:46:55.815Z,54.51
2022-08-23T11:51:20.970Z,54.21
2022-08-23T11:55:44.104Z,54.60
2022-08-23T12:00:10.905Z,54.24
2022-08-23T12:04:37.682Z,54.21
2022-08-23T12:09:04.593Z,54.04
2022-08-23T12:13:18.372Z,53.71
2022-08-23T12:17:25.606Z,53.35
2022-08-23T12:21:39.460Z,53.34
2022-08-23T12:25:42.107Z,53.25
2022-08-23T12:30:05.480Z,54.64
2022-08-23T12:34:34.117Z,56.20
2022-08-23T12:38:42.522Z,56.51
2022-08-23T12:42:44.198Z,57.03
2022-08-23T12:46:48.993Z,57.72
2022-08-23T12:50:58.631Z,58.07
2022-08-23T12:55:00.790Z,58.37
2022-08-23T12:59:07.359Z,59.25
2022-08-23T13:03:22.123Z,59.72
2022-08-23T13:07:24.636Z,59.62
2022-08-23T13:11:29.421Z,60.30
2022-08-23T13:15:59.246Z,60.96
2022-08-23T13:20:00.920Z,60.65
2022-08-23T13:24:38.750Z,60.59
2022-08-23T13:28:40.750Z,60.54
2022-08-23T13:32:48.713Z,60.95
2022-08-23T13:36:50.376Z,61.04
2022-08-23T13:40:59.214Z,60.82
2022-08-23T13:45:13.471Z,60.83
2022-08-23T13:49:24.840Z,60.89
2022-08-23T13:53:29.291Z,60.66
2022-08-23T13:57:32.287Z,60.07
2022-08-23T14:01:39.723Z,60.09
2022-08-23T14:05:41.222Z,60.33
2022-08-23T14:09:43.229Z,60.16
2022-08-23T14:13:47.489Z,60.29
2022-08-23T14:17:51.834Z,60.61
2022-08-23T14:21:54.129Z,60.77
2022-08-23T14:25:56.716Z,60.75
2022-08-23T14:29:58.393Z,60.25
2022-08-23T14:34:02.205Z,60.06
2022-08-23T14:38:13.433Z,60.14
2022-08-23T14:42:19.487Z,59.88
2022-08-23T14:46:23.074Z,59.55
2022-08-23T14:50:24.730Z,60.21
2022-08-23T14:54:29.845Z,61.40
2022-08-23T14:58:48.557Z,62.15
2022-08-23T15:02:50.335Z,63.00
2022-08-23T15:07:16.709Z,63.22
2022-08-23T15:15:37.531Z,63.65
2022-08-23T15:19:39.874Z,63.78
2022-08-23T15:23:43.983Z,63.93
2022-08-23T15:27:47.159Z,63.90
2022-08-23T15:31:48.750Z,63.96
2022-08-23T15:35:52.236Z,64.17
2022-08-23T15:39:54.205Z,64.42
2022-08-23T15:43:55.797Z,64.37
2022-08-23T15:48:01.064Z,64.67
2022-08-23T15:52:03.131Z,64.70
2022-08-23T15:56:15.251Z,65.30
2022-08-23T16:00:19.993Z,65.95
2022-08-23T16:04:21.706Z,65.87
2022-08-23T16:08:27.566Z,66.42
2022-08-23T16:12:29.808Z,66.48
2022-08-23T16:16:36.662Z,66.71
2022-08-23T16:20:38.343Z,66.58
2022-08-23T16:24:40.002Z,66.17
2022-08-23T16:28:42.289Z,66.25
2022-08-23T16:32:43.915Z,66.37
2022-08-23T16:36:51.706Z,67.13
2022-08-23T16:40:53.302Z,67.50
2022-08-23T16:44:54.902Z,67.26
2022-08-23T16:48:56.634Z,67.73
2022-08-23T16:52:58.796Z,67.80
2022-08-23T16:57:02.044Z,67.93
2022-08-23T17:01:04.686Z,67.63
2022-08-23T17:05:10.397Z,68.28
2022-08-23T17:09:13.106Z,68.42
2022-08-23T17:13:15.835Z,68.74
2022-08-23T17:17:17.865Z,68.83
2022-08-23T17:21:19.455Z,68.98
2022-08-23T17:25:21.850Z,69.15
2022-08-23T17:29:23.484Z,69.34
2022-08-23T17:33:25.335Z,69.31
2022-08-23T17:37:27.058Z,69.60
2022-08-23T17:41:28.786Z,69.93
2022-08-23T17:45:47.255Z,70.07
2022-08-23T17:49:49.428Z,70.39
2022-08-23T17:53:51.106Z,71.05
2022-08-23T17:57:56.358Z,71.63
2022-08-23T18:02:04.657Z,71.85
2022-08-23T18:06:16.626Z,72.08
2022-08-23T18:10:18.789Z,72.80
2022-08-23T18:14:20.544Z,73.02
2022-08-23T18:18:22.150Z,73.42
2022-08-23T18:22:23.771Z,73.73
2022-08-23T18:26:44.410Z,74.21
2022-08-23T18:30:54.761Z,74.02
2022-08-23T18:34:56.490Z,74.15
2022-08-23T18:38:58.462Z,74.11
2022-08-23T18:43:00.036Z,74.36
2022-08-23T18:47:02.893Z,74.14
2022-08-23T18:51:05.550Z,74.16
2022-08-23T18:55:17.549Z,73.65
2022-08-23T18:59:19.434Z,73.64
2022-08-23T19:03:21.458Z,73.83
2022-08-23T19:07:23.109Z,74.00
2022-08-23T19:11:24.892Z,74.05
2022-08-23T19:15:29.479Z,74.42
2022-08-23T19:19:31.514Z,74.26
2022-08-23T19:23:33.644Z,74.34
2022-08-23T19:27:35.317Z,73.77
2022-08-23T19:31:42.809Z,73.30
2022-08-23T19:35:44.690Z,73.16
2022-08-23T19:39:46.524Z,73.52
2022-08-23T19:43:48.179Z,73.20
2022-08-23T19:47:49.884Z,72.78
2022-08-23T19:51:55.618Z,72.81
2022-08-23T19:56:01.875Z,73.14
2022-08-23T20:00:13.532Z,73.47
2022-08-23T20:04:17.988Z,73.27
2022-08-23T20:08:19.661Z,73.90
2022-08-23T20:12:21.269Z,73.86
2022-08-23T20:16:23.796Z,74.47
2022-08-23T20:20:25.832Z,74.70
2022-08-23T20:24:48.703Z,75.04
2022-08-23T20:28:59.029Z,74.92
2022-08-23T20:33:02.261Z,75.57
2022-08-23T20:37:05.187Z,75.92
2022-08-23T20:41:08.062Z,75.86
2022-08-23T20:45:10.648Z,76.49
2022-08-23T20:49:12.770Z,76.38
2022-08-23T20:53:14.763Z,76.12
2022-08-23T20:57:16.452Z,76.29
2022-08-23T21:01:18.848Z,76.00
2022-08-23T21:05:20.657Z,76.23
2022-08-23T21:09:27.454Z,76.38
2022-08-23T21:13:31.133Z,76.60
2022-08-23T21:17:32.863Z,76.79
2022-08-23T21:21:34.492Z,76.53
2022-08-23T21:25:36.146Z,77.08
2022-08-23T21:29:38.555Z,76.83
2022-08-23T21:33:42.115Z,77.51
2022-08-23T21:37:43.720Z,77.46
2022-08-23T21:41:48.198Z,77.53
2022-08-23T21:45:49.840Z,77.88
2022-08-23T21:49:52.381Z,77.85
2022-08-23T21:53:54.018Z,78.37
2022-08-23T21:57:55.608Z,78.27
2022-08-23T22:01:57.313Z,78.97
2022-08-23T22:05:59.000Z,78.81
2022-08-23T22:10:02.093Z,79.27
2022-08-23T22:14:03.700Z,79.63
2022-08-23T22:18:05.975Z,79.57
2022-08-23T22:22:07.701Z,79.92
2022-08-23T22:26:09.847Z,80.75
2022-08-23T22:30:11.841Z,80.66
2022-08-23T22:34:13.522Z,81.14
2022-08-23T22:38:15.200Z,82.04
2022-08-23T22:42:16.892Z,82.22
2022-08-23T22:46:19.361Z,82.44
2022-08-23T22:50:21.015Z,82.66
2022-08-23T22:54:23.374Z,83.22
2022-08-23T22:58:25.101Z,83.19
2022-08-23T23:02:26.917Z,83.62
2022-08-23T23:06:29.839Z,83.68
2022-08-23T23:10:31.468Z,83.55
2022-08-23T23:14:33.529Z,83.93
2022-08-23T23:18:35.727Z,84.14
2022-08-23T23:22:37.317Z,84.53
2022-08-23T23:26:39.425Z,84.61
2022-08-23T23:30:43.344Z,84.76
2022-08-23T23:34:45.198Z,85.12
2022-08-23T23:38:47.047Z,85.24
2022-08-23T23:42:48.862Z,85.62
2022-08-23T23:46:50.521Z,85.65
2022-08-23T23:50:52.122Z,85.75
2022-08-23T23:54:53.761Z,86.38
2022-08-23T23:58:56.807Z,85.89
